Time;durP1;ratioP1;P1;durP2;ratioP2;P2;SDS_P1;SDS_P2;PMS_P1;PMS_P2;Temp;Humidity;BMP_temperature;BMP_pressure;BME280_temperature;BME280_humidity;BME280_pressure;Samples;Min_cycle;Max_cycle;Signal;HPM_P1;HPM_P2
2022/10/27 00:00:25;;;;;;;11.00;5.43;;;;;;;12.48;100.00;102194.28;6218727;23;20098;-80
2022/10/27 00:02:52;;;;;;;10.13;5.60;;;;;;;12.43;100.00;102198.19;6218503;23;20465;-80
2022/10/27 00:05:21;;;;;;;5.88;5.25;;;;;;;12.40;100.00;102195.59;6218330;23;20084;-80
2022/10/27 00:07:48;;;;;;;6.50;5.43;;;;;;;12.38;100.00;102197.97;6219170;23;20459;-80
2022/10/27 00:10:16;;;;;;;17.02;5.97;;;;;;;12.37;100.00;102199.13;6218798;23;20017;-80
2022/10/27 00:12:42;;;;;;;9.02;6.18;;;;;;;12.35;100.00;102194.94;6219237;23;20013;-80
2022/10/27 00:15:10;;;;;;;8.90;5.53;;;;;;;12.33;100.00;102188.53;6219095;23;20088;-80
2022/10/27 00:17:37;;;;;;;10.27;5.50;;;;;;;12.28;100.00;102192.44;6218219;23;20021;-80
2022/10/27 00:20:05;;;;;;;8.18;5.25;;;;;;;12.25;100.00;102190.59;6219266;23;20430;-80
2022/10/27 00:22:32;;;;;;;6.43;5.18;;;;;;;12.20;100.00;102188.41;6218543;23;20023;-80
2022/10/27 00:24:58;;;;;;;10.43;5.63;;;;;;;12.16;100.00;102195.75;6219238;23;20088;-80
2022/10/27 00:27:24;;;;;;;10.18;5.72;;;;;;;12.15;100.00;102190.81;6218548;23;20021;-79
2022/10/27 00:29:51;;;;;;;6.63;4.85;;;;;;;12.14;100.00;102192.00;6219079;23;20148;-80
2022/10/27 00:32:17;;;;;;;5.60;5.10;;;;;;;12.11;100.00;102198.16;6217604;23;20016;-80
2022/10/27 00:34:44;;;;;;;9.23;5.00;;;;;;;12.04;100.00;102196.38;6218965;23;20087;-80
2022/10/27 00:37:10;;;;;;;11.52;5.15;;;;;;;12.00;100.00;102207.13;6218651;23;20051;-80
2022/10/27 00:39:37;;;;;;;6.38;4.68;;;;;;;11.97;100.00;102209.91;6218655;23;20093;-80
2022/10/27 00:42:03;;;;;;;6.68;4.78;;;;;;;11.96;100.00;102209.16;6219119;23;20096;-80
2022/10/27 00:44:41;;;;;;;8.23;5.35;;;;;;;11.96;100.00;102208.41;6218105;23;20013;-80
2022/10/27 00:47:19;;;;;;;10.82;5.25;;;;;;;11.92;100.00;102203.13;6217969;23;20104;-80
2022/10/27 00:50:25;;;;;;;7.28;5.15;;;;;;;11.90;100.00;102210.03;6192108;23;20017;-81
2022/10/27 00:52:56;;;;;;;9.45;5.18;;;;;;;11.87;100.00;102210.88;6067816;23;20097;-80
2022/10/27 00:55:33;;;;;;;;;;;;;;;11.87;100.00;102214.28;6068094;23;20019;-80
2022/10/27 00:58:03;;;;;;;6.90;4.80;;;;;;;11.84;100.00;102217.78;6068585;23;19932;-81
2022/10/27 01:00:30;;;;;;;6.65;4.90;;;;;;;11.81;100.00;102218.59;6067365;23;20020;-80
2022/10/27 01:02:57;;;;;;;6.65;5.07;;;;;;;11.80;100.00;102221.69;6067682;23;20030;-79
2022/10/27 01:05:26;;;;;;;10.05;4.72;;;;;;;11.77;100.00;102219.81;6067347;23;20023;-79
2022/10/27 01:07:56;;;;;;;5.75;5.13;;;;;;;11.74;100.00;102217.94;6043673;23;20054;-80
2022/10/27 01:10:24;;;;;;;6.38;5.20;;;;;;;11.68;100.00;102215.00;6067446;23;20418;-79
2022/10/27 01:12:52;;;;;;;5.93;4.72;;;;;;;11.63;100.00;102218.91;6067998;23;20280;-79
2022/10/27 01:15:23;;;;;;;7.25;5.20;;;;;;;11.62;100.00;102214.72;6066970;23;20480;-79
2022/10/27 01:18:23;;;;;;;8.57;5.05;;;;;;;11.61;100.00;102220.47;6068074;23;20524;-79
2022/10/27 01:21:01;;;;;;;7.53;4.97;;;;;;;11.57;100.00;102220.56;6067842;23;20020;-79
2022/10/27 01:23:56;;;;;;;9.07;4.45;;;;;;;11.57;100.00;102223.25;6067622;23;20446;-79
2022/10/27 01:26:41;;;;;;;6.50;4.85;;;;;;;11.54;100.00;102237.38;6112948;23;20367;-81
2022/10/27 01:29:23;;;;;;;8.02;4.68;;;;;;;11.51;100.00;102234.78;6218404;23;20433;-79
2022/10/27 01:32:03;;;;;;;8.90;4.40;;;;;;;11.49;100.00;102242.44;6218373;23;20092;-79
2022/10/27 01:34:41;;;;;;;5.15;4.57;;;;;;;11.44;100.00;102237.56;6218139;23;20170;-79
2022/10/27 01:37:12;;;;;;;9.48;4.68;;;;;;;11.42;100.00;102237.22;6218716;23;20498;-79
2022/10/27 01:39:47;;;;;;;;;;;;;;;11.41;100.00;102236.47;6218928;23;20021;-79
2022/10/27 01:42:24;;;;;;;6.53;4.10;;;;;;;11.37;100.00;102238.47;6218711;23;20691;-79
2022/10/27 01:44:53;;;;;;;10.77;4.65;;;;;;;11.36;100.00;102244.94;6217538;23;20027;-78
2022/10/27 01:47:21;;;;;;;7.85;4.28;;;;;;;11.35;100.00;102249.53;6217436;23;20486;-81
2022/10/27 01:49:51;;;;;;;12.60;4.63;;;;;;;11.35;100.00;102243.44;6218860;23;20459;-78
2022/10/27 01:52:41;;;;;;;8.52;4.95;;;;;;;11.34;100.00;102245.34;6217943;23;20019;-78
2022/10/27 01:55:27;;;;;;;9.80;5.35;;;;;;;11.34;100.00;102248.03;6218487;23;20080;-79
2022/10/27 01:57:59;;;;;;;10.60;5.03;;;;;;;11.37;100.00;102249.13;6218702;23;20474;-79
2022/10/27 02:00:26;;;;;;;9.30;5.80;;;;;;;11.43;100.00;102246.75;6217567;23;20084;-79
2022/10/27 02:03:05;;;;;;;7.57;5.32;;;;;;;11.50;100.00;102247.38;6218592;23;20013;-80
2022/10/27 02:05:40;;;;;;;14.65;5.95;;;;;;;11.52;100.00;102234.38;6218139;23;20100;-80
2022/10/27 02:08:29;;;;;;;10.68;6.20;;;;;;;11.57;100.00;102231.25;6218531;23;20021;-79
2022/10/27 02:11:06;;;;;;;8.18;5.70;;;;;;;11.63;100.00;102229.56;6218709;23;20075;-79
2022/10/27 02:13:39;;;;;;;6.28;5.60;;;;;;;11.68;100.00;102226.44;6217629;23;20092;-79
2022/10/27 02:16:10;;;;;;;9.27;5.57;;;;;;;11.74;100.00;102220.63;6191904;23;20017;-78
2022/10/27 02:18:49;;;;;;;8.73;6.43;;;;;;;11.80;100.00;102213.66;6218044;23;20041;-79
2022/10/27 02:21:16;;;;;;;10.00;6.18;;;;;;;11.90;100.00;102224.13;6218194;23;20296;-78
2022/10/27 02:23:43;;;;;;;10.85;6.32;;;;;;;11.96;100.00;102217.16;6218502;23;20051;-79
2022/10/27 02:26:27;;;;;;;10.02;6.10;;;;;;;12.03;100.00;102210.88;6218255;23;20084;-79
2022/10/27 02:29:01;;;;;;;7.82;5.97;;;;;;;12.10;100.00;102204.66;6217871;23;20088;-79
2022/10/27 02:31:35;;;;;;;7.57;6.10;;;;;;;12.09;100.00;102203.91;6217940;23;20088;-79
2022/10/27 02:34:03;;;;;;;13.88;5.97;;;;;;;12.10;100.00;102208.06;6218437;23;20096;-79
2022/10/27 02:36:30;;;;;;;10.88;6.15;;;;;;;12.12;100.00;102203.06;6217577;23;20020;-79
2022/10/27 02:38:57;;;;;;;8.95;6.03;;;;;;;12.14;100.00;102200.00;6218262;23;20056;-79
2022/10/27 02:41:23;;;;;;;11.02;6.15;;;;;;;12.14;100.00;102205.34;6217569;23;20076;-79
2022/10/27 02:43:49;;;;;;;9.90;5.93;;;;;;;12.14;100.00;102200.00;6217559;23;20017;-81
2022/10/27 02:46:16;;;;;;;9.30;5.88;;;;;;;12.13;100.00;102203.84;6217797;23;20118;-79
2022/10/27 02:48:42;;;;;;;9.82;5.82;;;;;;;12.11;100.00;102198.91;6218268;23;20100;-79
2022/10/27 02:51:10;;;;;;;8.52;5.80;;;;;;;12.11;100.00;102201.56;6217689;23;20447;-79
2022/10/27 02:53:36;;;;;;;14.25;5.90;;;;;;;12.15;100.00;102199.59;6217510;23;20055;-79
2022/10/27 02:56:03;;;;;;;11.60;5.78;;;;;;;12.16;100.00;102205.69;6219222;23;20451;-81
2022/10/27 02:58:30;;;;;;;6.22;5.60;;;;;;;12.16;100.00;102200.34;6218097;23;20411;-79
2022/10/27 03:00:56;;;;;;;8.73;5.60;;;;;;;12.18;100.00;102203.34;6219703;23;20088;-80
2022/10/27 03:03:23;;;;;;;13.65;5.38;;;;;;;12.19;100.00;102194.16;6218958;23;20048;-79
2022/10/27 03:05:49;;;;;;;9.98;5.85;;;;;;;12.20;100.00;102193.75;6219428;23;20024;-79
2022/10/27 03:08:16;;;;;;;17.27;6.05;;;;;;;12.23;100.00;102186.84;6219077;23;20017;-79
2022/10/27 03:10:43;;;;;;;11.48;5.63;;;;;;;12.25;100.00;102197.84;6219444;23;20469;-79
2022/10/27 03:13:10;;;;;;;6.20;5.22;;;;;;;12.29;100.00;102183.25;6191808;23;20123;-81
2022/10/27 03:15:36;;;;;;;11.00;5.88;;;;;;;12.27;100.00;102180.25;6219309;23;20013;-78
2022/10/27 03:18:03;;;;;;;10.32;5.40;;;;;;;12.23;100.00;102184.16;6219421;23;20079;-79
2022/10/27 03:20:29;;;;;;;7.22;5.38;;;;;;;12.23;100.00;102186.84;6218831;23;20084;-79
2022/10/27 03:22:56;;;;;;;5.65;5.10;;;;;;;12.20;100.00;102183.06;6219557;23;20048;-80
2022/10/27 03:25:22;;;;;;;10.38;5.40;;;;;;;12.14;100.00;102182.06;6218664;23;20013;-80
2022/10/27 03:27:51;;;;;;;9.98;5.05;;;;;;;12.11;100.00;102188.22;6218902;23;20013;-79
2022/10/27 03:30:18;;;;;;;9.10;5.25;;;;;;;12.09;100.00;102187.88;6218933;23;20017;-79
2022/10/27 03:32:47;;;;;;;6.72;5.28;;;;;;;12.08;100.00;102180.28;6219406;23;20041;-79
2022/10/27 03:35:14;;;;;;;10.52;5.20;;;;;;;12.14;100.00;102184.72;6219304;23;20928;-79
2022/10/27 03:37:41;;;;;;;9.13;4.95;;;;;;;12.13;100.00;102185.91;6219317;23;20489;-79
2022/10/27 03:40:09;;;;;;;5.30;4.55;;;;;;;12.12;100.00;102189.72;6218377;23;20025;-79
2022/10/27 03:42:40;;;;;;;10.50;5.15;;;;;;;12.08;100.00;102183.72;6219115;23;20051;-79
2022/10/27 03:45:08;;;;;;;5.40;4.90;;;;;;;12.07;100.00;102187.56;6219404;23;20104;-80
2022/10/27 03:47:34;;;;;;;5.03;4.53;;;;;;;12.03;100.00;102189.53;6218704;23;20084;-79
2022/10/27 03:50:01;;;;;;;5.95;4.72;;;;;;;12.03;100.00;102187.63;6192951;23;20013;-79
2022/10/27 03:52:27;;;;;;;12.15;4.80;;;;;;;12.00;100.00;102185.78;6218493;23;20500;-79
2022/10/27 03:54:58;;;;;;;8.63;4.70;;;;;;;11.99;100.00;102183.56;6219108;23;20017;-79
2022/10/27 03:57:24;;;;;;;7.95;4.90;;;;;;;11.98;100.00;102182.81;6218741;23;20246;-79
2022/10/27 03:59:51;;;;;;;11.48;5.00;;;;;;;11.97;100.00;102178.63;6192717;23;20021;-79
2022/10/27 04:02:17;;;;;;;8.40;5.22;;;;;;;11.94;100.00;102181.38;6218930;23;20116;-79
2022/10/27 04:04:44;;;;;;;6.60;4.50;;;;;;;11.93;100.00;102182.53;6219451;23;20013;-79
2022/10/27 04:07:10;;;;;;;5.85;4.82;;;;;;;11.91;100.00;102188.28;6218331;23;20013;-79
2022/10/27 04:09:36;;;;;;;8.88;4.63;;;;;;;11.88;100.00;102189.09;6218228;23;20025;-79
2022/10/27 04:12:04;;;;;;;7.72;4.75;;;;;;;11.85;100.00;102195.25;6219226;23;20013;-79
2022/10/27 04:14:30;;;;;;;8.85;4.57;;;;;;;11.85;100.00;102189.94;6218377;23;20096;-79
2022/10/27 04:16:57;;;;;;;8.10;4.50;;;;;;;11.82;100.00;102185.41;6219407;23;20439;-80
2022/10/27 04:19:23;;;;;;;5.00;4.13;;;;;;;11.85;100.00;102197.94;6218349;23;20060;-79
2022/10/27 04:21:50;;;;;;;7.32;4.95;;;;;;;11.86;100.00;102198.69;6219249;23;20380;-80
2022/10/27 04:24:16;;;;;;;4.57;4.18;;;;;;;11.85;100.00;102203.28;6217895;23;20013;-80
2022/10/27 04:26:43;;;;;;;8.32;4.63;;;;;;;11.82;100.00;102201.44;6219206;23;20088;-80
2022/10/27 04:29:09;;;;;;;9.00;4.50;;;;;;;11.82;100.00;102198.00;6218700;23;20084;-79
2022/10/27 04:31:35;;;;;;;5.88;4.07;;;;;;;11.78;100.00;102206.06;6218830;23;20017;-80
2022/10/27 04:34:02;;;;;;;8.45;4.47;;;;;;;11.77;100.00;102209.91;6219099;23;20404;-79
2022/10/27 04:36:29;;;;;;;6.80;4.63;;;;;;;11.75;100.00;102206.13;6218565;23;20088;-79
2022/10/27 04:38:55;;;;;;;8.85;4.32;;;;;;;11.75;100.00;102206.13;6218398;23;20032;-79
2022/10/27 04:41:22;;;;;;;7.00;4.10;;;;;;;11.76;100.00;102211.03;6191836;23;20013;-80
2022/10/27 04:43:49;;;;;;;11.80;4.80;;;;;;;11.77;100.00;102211.81;6192875;23;20107;-80
2022/10/27 04:46:17;;;;;;;8.82;4.38;;;;;;;11.74;100.00;102205.38;6217953;23;20459;-80
2022/10/27 04:48:43;;;;;;;10.38;4.22;;;;;;;11.73;100.00;102209.19;6218947;23;20104;-80
2022/10/27 04:51:09;;;;;;;5.00;4.35;;;;;;;11.73;100.00;102214.53;6218628;23;20088;-80
2022/10/27 04:53:36;;;;;;;6.15;3.97;;;;;;;11.70;100.00;102212.69;6218201;23;20441;-80
2022/10/27 04:56:02;;;;;;;8.35;4.68;;;;;;;11.69;100.00;102206.59;6218884;23;20096;-80
2022/10/27 04:58:29;;;;;;;6.75;4.32;;;;;;;11.66;100.00;102204.00;6218288;23;20017;-79
2022/10/27 05:00:55;;;;;;;6.90;4.55;;;;;;;11.64;100.00;102203.66;6218860;23;20068;-79
2022/10/27 05:03:22;;;;;;;7.38;4.38;;;;;;;11.62;100.00;102203.31;6191991;23;20041;-80
2022/10/27 05:05:48;;;;;;;4.38;3.97;;;;;;;11.59;100.00;102204.16;6219083;23;20088;-80
2022/10/27 05:08:14;;;;;;;4.97;4.43;;;;;;;11.56;100.00;102203.06;6217867;23;20044;-79
2022/10/27 05:10:41;;;;;;;4.82;4.28;;;;;;;11.55;100.00;102209.56;6218576;23;20455;-80
2022/10/27 05:13:07;;;;;;;8.90;4.68;;;;;;;11.53;100.00;102197.78;6218714;23;20092;-79
2022/10/27 05:15:34;;;;;;;8.98;4.47;;;;;;;11.50;100.00;102204.69;6218488;23;20041;-79
2022/10/27 05:18:00;;;;;;;12.40;4.85;;;;;;;11.49;100.00;102195.19;6218997;23;20458;-79
2022/10/27 05:20:26;;;;;;;6.00;4.07;;;;;;;11.47;100.00;102202.84;6218055;23;20466;-79
2022/10/27 05:22:53;;;;;;;6.35;4.78;;;;;;;11.44;100.00;102195.66;6218348;23;20036;-79
2022/10/27 05:25:20;;;;;;;7.03;4.45;;;;;;;11.44;100.00;102195.66;6218011;23;20430;-79
2022/10/27 05:27:46;;;;;;;5.90;4.43;;;;;;;11.43;100.00;102198.75;6218948;23;20099;-79
2022/10/27 05:30:13;;;;;;;5.20;4.25;;;;;;;11.42;100.00;102199.91;6218558;23;20048;-79
2022/10/27 05:32:40;;;;;;;6.78;4.28;;;;;;;11.41;100.00;102201.06;6218668;23;20013;-79
2022/10/27 05:35:13;;;;;;;5.35;4.32;;;;;;;11.39;100.00;102190.81;6218255;23;20435;-79
2022/10/27 05:37:43;;;;;;;5.07;4.57;;;;;;;11.38;100.00;102194.63;6217861;23;20060;-79
2022/10/27 05:40:10;;;;;;;11.05;4.50;;;;;;;11.36;100.00;102191.63;6218202;23;20102;-79
2022/10/27 05:42:36;;;;;;;7.38;4.70;;;;;;;11.35;100.00;102192.78;6218536;23;20088;-79
2022/10/27 05:45:03;;;;;;;11.07;4.38;;;;;;;11.34;100.00;102192.03;6218758;23;20060;-79
2022/10/27 05:47:29;;;;;;;9.05;4.57;;;;;;;11.31;100.00;102194.75;6217573;23;20359;-79
2022/10/27 05:49:56;;;;;;;8.05;4.43;;;;;;;11.31;100.00;102200.09;6218668;23;20017;-80
2022/10/27 05:52:22;;;;;;;5.35;4.85;;;;;;;11.30;100.00;102195.91;6217541;23;20041;-80
2022/10/27 05:54:49;;;;;;;8.07;5.00;;;;;;;11.25;100.00;102193.72;6218913;23;20037;-79
2022/10/27 05:57:15;;;;;;;11.68;4.30;;;;;;;11.22;100.00;102205.19;6218272;23;20088;-80
2022/10/27 05:59:41;;;;;;;7.15;4.68;;;;;;;11.18;100.00;102193.88;6218141;23;20103;-80
2022/10/27 06:02:09;;;;;;;6.00;4.72;;;;;;;11.19;100.00;102195.38;6217814;23;20051;-79
2022/10/27 06:04:35;;;;;;;6.18;4.25;;;;;;;11.23;100.00;102196.03;6216667;23;20017;-80
2022/10/27 06:07:02;;;;;;;6.40;4.57;;;;;;;11.26;100.00;102195.97;6215950;23;20052;-79
2022/10/27 06:09:28;;;;;;;7.88;4.72;;;;;;;11.29;100.00;102197.06;6216571;23;20088;-80
2022/10/27 06:11:55;;;;;;;6.93;4.95;;;;;;;11.30;100.00;102190.59;6217616;23;20037;-79
2022/10/27 06:14:21;;;;;;;8.32;5.07;;;;;;;11.29;100.00;102187.16;6218590;23;20114;-84
2022/10/27 06:16:53;;;;;;;13.05;5.15;;;;;;;11.29;100.00;102184.50;6219229;23;20057;-79
2022/10/27 06:19:20;;;;;;;5.53;4.80;;;;;;;11.27;100.00;102186.81;6218232;23;20021;-81
2022/10/27 06:21:46;;;;;;;6.13;5.53;;;;;;;11.26;100.00;102187.22;6218456;23;20470;-80
2022/10/27 06:24:13;;;;;;;12.20;5.28;;;;;;;11.25;100.00;102183.06;6218764;23;20085;-80
2022/10/27 06:26:39;;;;;;;7.47;5.32;;;;;;;11.22;100.00;102192.63;6218670;23;20089;-80
2022/10/27 06:29:06;;;;;;;10.73;5.80;;;;;;;11.22;100.00;102181.97;6218873;23;20631;-79
2022/10/27 06:31:32;;;;;;;9.45;5.82;;;;;;;11.21;100.00;102185.78;6219992;23;20017;-79
2022/10/27 06:33:59;;;;;;;10.40;5.70;;;;;;;11.25;100.00;102180.41;6193733;23;20044;-80
2022/10/27 06:36:25;;;;;;;13.32;5.57;;;;;;;11.26;100.00;102181.91;6219419;23;20028;-79
2022/10/27 06:38:51;;;;;;;8.93;6.13;;;;;;;11.26;100.00;102181.91;6220369;23;20013;-78
2022/10/27 06:41:18;;;;;;;7.88;5.95;;;;;;;11.26;100.00;102185.31;6219924;23;20443;-79
2022/10/27 06:43:44;;;;;;;7.10;5.80;;;;;;;11.27;100.00;102176.16;6220234;23;20056;-79
2022/10/27 06:46:11;;;;;;;8.88;6.40;;;;;;;11.28;100.00;102182.25;6219803;23;20742;-79
2022/10/27 06:48:37;;;;;;;6.95;6.22;;;;;;;11.31;100.00;102176.84;6192668;23;20084;-80
2022/10/27 06:51:04;;;;;;;8.13;5.72;;;;;;;11.34;100.00;102186.69;6193752;23;20072;-79
2022/10/27 06:53:30;;;;;;;11.43;5.78;;;;;;;11.35;100.00;102182.13;6219951;23;20027;-79
2022/10/27 06:55:57;;;;;;;11.10;6.03;;;;;;;11.41;100.00;102177.81;6220135;23;20507;-79
2022/10/27 06:58:24;;;;;;;6.28;5.68;;;;;;;11.46;100.00;102176.59;6193412;23;20053;-80
2022/10/27 07:00:50;;;;;;;6.93;5.85;;;;;;;11.51;100.00;102176.13;6220111;23;20396;-79
2022/10/27 07:03:16;;;;;;;8.45;6.03;;;;;;;11.56;100.00;102181.72;6219455;23;20088;-79
2022/10/27 07:05:43;;;;;;;9.27;6.25;;;;;;;11.61;100.00;102183.88;6220239;23;20091;-79
2022/10/27 07:08:09;;;;;;;8.25;5.55;;;;;;;11.64;100.00;102175.06;6193756;23;20037;-79
2022/10/27 07:10:36;;;;;;;8.40;5.93;;;;;;;11.67;100.00;102173.50;6219545;23;20350;-79
2022/10/27 07:13:02;;;;;;;10.57;6.10;;;;;;;11.68;100.00;102169.66;6192865;23;20013;-79
2022/10/27 07:15:31;;;;;;;7.63;5.22;;;;;;;11.72;100.00;102174.94;6219756;23;20045;-80
2022/10/27 07:18:05;;;;;;;9.90;5.50;;;;;;;11.76;100.00;102170.28;6219417;23;20040;-79
2022/10/27 07:20:33;;;;;;;10.57;5.65;;;;;;;11.76;100.00;102171.03;6219345;23;20028;-79
2022/10/27 07:23:01;;;;;;;7.50;5.78;;;;;;;11.78;100.00;102171.41;6220077;23;20013;-78
2022/10/27 07:25:28;;;;;;;8.38;5.00;;;;;;;11.80;100.00;102171.75;6219666;23;20025;-79
2022/10/27 07:27:55;;;;;;;8.18;5.22;;;;;;;11.82;100.00;102168.66;6220015;23;20049;-79
2022/10/27 07:30:27;;;;;;;7.68;5.28;;;;;;;11.83;100.00;102165.56;6219714;23;20013;-79
2022/10/27 07:32:54;;;;;;;6.43;4.90;;;;;;;11.84;100.00;102161.75;6193056;23;20044;-79
2022/10/27 07:35:21;;;;;;;9.20;4.45;;;;;;;11.87;100.00;102158.25;6219574;23;20132;-79
2022/10/27 07:37:48;;;;;;;7.57;4.97;;;;;;;11.89;100.00;102160.50;6219946;23;20053;-79
2022/10/27 07:40:17;;;;;;;5.50;4.95;;;;;;;11.94;100.00;102163.44;6193312;23;20021;-79
2022/10/27 07:42:45;;;;;;;8.52;4.35;;;;;;;11.97;100.00;102165.28;6219495;23;20084;-79
2022/10/27 07:45:13;;;;;;;9.52;4.80;;;;;;;12.01;100.00;102173.19;6219877;23;20095;-79
2022/10/27 07:47:45;;;;;;;10.60;5.13;;;;;;;12.05;100.00;102165.84;6218486;23;20017;-79
2022/10/27 07:50:15;;;;;;;5.82;4.97;;;;;;;12.07;100.00;102170.78;6220024;23;20434;-81
2022/10/27 07:52:43;;;;;;;10.15;4.90;;;;;;;12.11;100.00;102174.13;6219960;23;20407;-81
2022/10/27 07:55:11;;;;;;;16.08;4.80;;;;;;;12.11;100.00;102172.22;6219976;23;20080;-79
2022/10/27 07:57:42;;;;;;;7.97;4.88;;;;;;;12.14;100.00;102171.38;6219779;23;20013;-79
2022/10/27 08:00:11;;;;;;;11.93;4.72;;;;;;;12.23;100.00;102157.47;6219963;23;20041;-79
2022/10/27 08:02:38;;;;;;;7.38;4.60;;;;;;;12.32;100.00;102177.09;6219131;23;20060;-79
2022/10/27 08:05:05;;;;;;;10.00;4.45;;;;;;;12.41;100.00;102171.16;6219947;23;20021;-78
2022/10/27 08:07:31;;;;;;;5.18;4.40;;;;;;;12.50;100.00;102174.00;6219421;23;20108;-78
2022/10/27 08:09:58;;;;;;;8.57;4.88;;;;;;;12.58;100.00;102174.56;6220001;23;20035;-78
2022/10/27 08:12:24;;;;;;;6.05;4.07;;;;;;;12.67;100.00;102180.09;6219255;23;20053;-78
2022/10/27 08:14:51;;;;;;;4.85;4.45;;;;;;;12.75;100.00;102180.66;6219750;23;20089;-79
2022/10/27 08:17:21;;;;;;;4.75;4.40;;;;;;;12.85;100.00;102176.97;6219147;23;20018;-79
2022/10/27 08:19:47;;;;;;;8.95;4.40;;;;;;;12.89;100.00;102172.28;6219772;23;20017;-79
2022/10/27 08:22:14;;;;;;;7.47;4.25;;;;;;;12.96;100.00;102172.84;6219767;23;20076;-80
2022/10/27 08:24:41;;;;;;;10.52;4.60;;;;;;;13.06;100.00;102176.44;6219585;23;20092;-80
2022/10/27 08:27:07;;;;;;;7.90;4.30;;;;;;;13.11;100.00;102167.91;6219753;23;20013;-79
2022/10/27 08:29:34;;;;;;;5.95;3.97;;;;;;;13.15;100.00;102165.13;6219600;23;20036;-81
2022/10/27 08:32:00;;;;;;;6.28;4.25;;;;;;;13.18;100.00;102159.72;6219404;23;20041;-80
2022/10/27 08:34:26;;;;;;;6.82;4.18;;;;;;;13.22;100.00;102167.63;6219259;23;20052;-81
2022/10/27 08:36:53;;;;;;;5.28;3.70;;;;;;;13.27;99.83;102159.09;6219852;23;20093;-80
2022/10/27 08:39:19;;;;;;;6.53;3.97;;;;;;;13.36;100.00;102161.91;6219425;23;20013;-79
2022/10/27 08:42:11;;;;;;;6.35;4.00;;;;;;;13.49;99.76;102160.03;6218937;23;20088;-80
2022/10/27 08:44:52;;;;;;;5.30;3.88;;;;;;;13.61;99.23;102153.16;6218873;23;20517;-79
2022/10/27 08:47:20;;;;;;;4.07;3.67;;;;;;;13.72;98.61;102153.63;6219040;23;20080;-79
2022/10/27 08:49:56;;;;;;;5.20;3.60;;;;;;;13.83;97.57;102146.03;6219597;23;20023;-80
2022/10/27 08:52:39;;;;;;;11.27;4.80;;;;;;;13.94;97.39;102135.03;6218937;23;20016;-80
2022/10/27 08:55:11;;;;;;;8.45;4.18;;;;;;;13.99;95.78;102140.56;6219708;23;20041;-80
2022/10/27 08:57:42;;;;;;;4.80;3.97;;;;;;;14.05;95.79;102142.72;6192892;23;20020;-80
2022/10/27 09:00:12;;;;;;;6.15;3.90;;;;;;;14.11;95.07;102144.41;6192595;23;20085;-81
2022/10/27 09:02:52;;;;;;;5.15;3.75;;;;;;;14.22;94.96;102144.09;6219470;23;20018;-79
2022/10/27 09:05:41;;;;;;;12.25;4.22;;;;;;;14.35;95.07;102147.50;6192497;23;20480;-80
2022/10/27 09:08:24;;;;;;;14.38;4.25;;;;;;;14.46;93.68;102141.81;6219677;23;20048;-79
2022/10/27 09:11:12;;;;;;;8.88;3.83;;;;;;;14.58;93.51;102149.09;6218885;23;20017;-80
2022/10/27 09:13:59;;;;;;;6.57;3.92;;;;;;;14.68;92.97;102139.97;6218783;23;20088;-80
2022/10/27 09:16:48;;;;;;;9.10;3.30;;;;;;;14.77;92.23;102125.88;6219386;23;20017;-80
2022/10/27 09:19:21;;;;;;;7.57;2.90;;;;;;;14.93;89.90;102125.69;6219730;23;20017;-81
2022/10/27 09:21:50;;;;;;;7.05;2.65;;;;;;;15.03;89.52;102132.63;6219388;23;20028;-80
2022/10/27 09:24:20;;;;;;;4.60;2.67;;;;;;;15.10;88.30;102131.63;6219267;23;20084;-81
2022/10/27 09:26:47;;;;;;;4.05;2.85;;;;;;;15.19;87.30;102129.03;6219559;23;20017;-81
2022/10/27 09:29:21;;;;;;;6.78;2.70;;;;;;;15.26;86.76;102121.44;6218756;23;20045;-81
2022/10/27 09:31:52;;;;;;;6.22;2.70;;;;;;;15.32;87.28;102116.25;6219906;23;20052;-82
2022/10/27 09:34:54;;;;;;;5.03;2.50;;;;;;;15.38;86.95;102124.50;6220019;23;20096;-86
2022/10/27 09:37:20;;;;;;;;;;;;;;;15.45;88.50;102113.50;6220363;23;20105;-86
2022/10/27 09:39:49;;;;;;;3.28;2.33;;;;;;;15.47;85.38;102109.19;6219505;23;19951;-82
2022/10/27 09:42:17;;;;;;;7.25;2.17;;;;;;;15.51;84.22;102101.78;6219438;23;20080;-84
2022/10/27 09:44:53;;;;;;;2.70;2.20;;;;;;;15.58;83.88;102103.47;6218585;23;20060;-83
2022/10/27 09:47:25;;;;;;;3.47;2.25;;;;;;;15.64;83.75;102096.31;6218862;23;20112;-85
2022/10/27 09:49:58;;;;;;;3.30;2.40;;;;;;;15.73;82.78;102092.91;6219415;23;20447;-84
2022/10/27 09:52:31;;;;;;;3.20;2.30;;;;;;;15.80;83.60;102089.97;6218826;23;20028;-85
2022/10/27 09:54:57;;;;;;;2.90;2.25;;;;;;;15.84;82.79;102087.88;6192545;23;20545;-85
2022/10/27 09:57:27;;;;;;;2.78;2.17;;;;;;;15.90;82.47;102086.88;6218649;23;20017;-90
2022/10/27 10:00:07;;;;;;;3.15;2.20;;;;;;;16.00;81.79;102083.00;6218306;23;20025;-90
2022/10/27 10:02:40;;;;;;;3.88;1.83;;;;;;;16.12;81.66;102080.63;6220668;23;20909;-90
2022/10/27 10:05:20;;;;;;;6.78;2.10;;;;;;;16.20;80.92;102085.28;6220647;23;20017;-93
2022/10/27 10:07:47;;;;;;;3.28;1.98;;;;;;;16.28;79.73;102089.19;6221816;23;20281;-92
2022/10/27 10:10:13;;;;;;;3.28;1.70;;;;;;;16.41;80.04;102094.41;6222263;23;20020;-94
2022/10/27 10:12:40;;;;;;;5.60;1.83;;;;;;;16.55;79.77;102093.06;6219936;23;20067;-91
2022/10/27 10:15:09;;;;;;;4.00;1.80;;;;;;;16.65;79.03;102094.59;6221223;23;20471;-90
2022/10/27 10:17:49;;;;;;;4.30;2.28;;;;;;;16.76;77.92;102084.13;6222348;23;20029;-81
2022/10/27 10:20:38;;;;;;;2.15;1.80;;;;;;;16.88;78.41;102082.47;6221106;23;20017;-88
2022/10/27 10:23:10;;;;;;;4.18;2.10;;;;;;;16.93;78.32;102071.84;6221205;23;20013;-91
2022/10/27 10:25:46;;;;;;;1.67;1.58;;;;;;;16.94;77.08;102062.59;6220280;23;20096;-82
2022/10/27 10:28:20;;;;;;;5.65;1.75;;;;;;;16.98;78.21;102054.34;6226075;23;20059;-83
2022/10/27 10:30:51;;;;;;;2.63;1.90;;;;;;;16.98;77.46;102054.34;6223009;23;20099;-84
2022/10/27 10:33:18;;;;;;;3.13;1.80;;;;;;;16.99;77.91;102048.53;6219991;23;20021;-85
2022/10/27 10:35:51;;;;;;;2.90;2.10;;;;;;;16.99;77.73;102048.53;6220362;23;20088;-83
2022/10/27 10:38:29;;;;;;;6.20;1.90;;;;;;;17.02;78.53;102044.19;6219981;23;20056;-87
2022/10/27 10:41:15;;;;;;;2.65;1.65;;;;;;;17.06;77.88;102038.66;6219640;23;20483;-83
2022/10/27 10:43:42;;;;;;;2.13;1.90;;;;;;;17.09;77.57;102043.13;6220457;23;20404;-84
2022/10/27 10:46:21;;;;;;;2.40;2.03;;;;;;;17.08;78.01;102042.38;6193349;23;20430;-83
2022/10/27 10:48:51;;;;;;;3.45;2.00;;;;;;;17.10;77.35;102044.63;6220471;23;20462;-83
2022/10/27 10:51:33;;;;;;;6.50;2.20;;;;;;;17.12;77.47;102048.34;6219767;23;20141;-80
2022/10/27 10:54:19;;;;;;;6.22;1.95;;;;;;;17.15;78.03;102050.13;6220153;23;20475;-80
2022/10/27 10:56:51;;;;;;;4.82;1.90;;;;;;;17.18;77.41;102051.19;6219802;23;20017;-80
2022/10/27 10:59:23;;;;;;;6.13;2.10;;;;;;;17.21;77.57;102040.22;6219572;23;20028;-81
2022/10/27 11:02:24;;;;;;;5.82;2.13;;;;;;;17.24;77.17;102035.88;6220143;23;20049;-80
2022/10/27 11:04:51;;;;;;;5.20;2.13;;;;;;;17.24;77.15;102027.81;6220166;23;20100;-80
2022/10/27 11:07:19;;;;;;;6.15;2.38;;;;;;;17.24;76.61;102033.19;6219473;23;20092;-83
2022/10/27 11:10:03;;;;;;;3.13;2.22;;;;;;;17.25;77.23;102024.66;6219700;23;20092;-82
2022/10/27 11:12:48;;;;;;;5.82;2.40;;;;;;;17.29;76.88;102032.56;6194324;23;20017;-82
2022/10/27 11:15:31;;;;;;;4.82;2.30;;;;;;;17.33;76.69;102031.22;6218385;23;20017;-82
2022/10/27 11:18:00;;;;;;;5.75;2.38;;;;;;;17.39;76.59;102033.28;6219314;23;20069;-82
2022/10/27 11:20:31;;;;;;;2.03;1.83;;;;;;;17.43;76.19;102028.50;6219124;23;20107;-83
2022/10/27 11:23:00;;;;;;;3.08;1.83;;;;;;;17.48;76.44;102020.53;6220289;23;20044;-82
2022/10/27 11:25:31;;;;;;;3.95;1.83;;;;;;;17.51;75.93;102010.81;6192525;23;20520;-83
2022/10/27 11:28:15;;;;;;;4.55;2.13;;;;;;;17.55;76.00;102014.81;6220072;23;20052;-82
2022/10/27 11:30:54;;;;;;;4.13;2.30;;;;;;;17.60;77.11;102016.13;6220081;23;20021;-82
2022/10/27 11:33:44;;;;;;;4.63;2.00;;;;;;;17.64;76.70;102019.41;6219672;23;20485;-82